Time;durP1;ratioP1;P1;durP2;ratioP2;P2;SDS_P1;SDS_P2;PMS_P1;PMS_P2;Temp;Humidity;BMP_temperature;BMP_pressure;BME280_temperature;BME280_humidity;BME280_pressure;Samples;Min_cycle;Max_cycle;Signal;HPM_P1;HPM_P2
2022/04/08 00:02:09;;;;;;;12.90;6.53;;;;;;;11.96;76.22;98615.09;5111081;28;20031;-36
2022/04/08 00:04:34;;;;;;;13.38;6.70;;;;;;;12.09;75.80;98634.34;5111233;28;20059;-33
2022/04/08 00:07:01;;;;;;;12.30;6.95;;;;;;;12.06;75.55;98628.47;5110991;28;20034;-29
2022/04/08 00:09:26;;;;;;;12.38;7.18;;;;;;;11.84;76.57;98601.94;5093036;28;20024;-30
2022/04/08 00:11:52;;;;;;;12.95;7.47;;;;;;;12.06;75.30;98620.44;5110828;28;20097;-29
2022/04/08 00:14:20;;;;;;;12.32;6.07;;;;;;;11.96;75.45;98612.41;5110937;28;20050;-29
2022/04/08 00:16:45;;;;;;;;;;;;;;;12.00;75.71;98637.53;5092900;28;20059;-31
2022/04/08 00:19:11;;;;;;;11.45;5.97;;;;;;;11.80;76.08;98632.09;5110914;28;20351;-29
2022/04/08 00:21:37;;;;;;;10.52;6.43;;;;;;;11.91;75.23;98628.44;5110850;28;20709;-28
2022/04/08 00:24:03;;;;;;;14.35;6.38;;;;;;;11.84;75.69;98636.66;5110819;28;20038;-32
2022/04/08 00:26:29;;;;;;;9.95;6.00;;;;;;;11.51;77.05;98639.72;5092376;28;20080;-29
2022/04/08 00:28:55;;;;;;;13.00;6.13;;;;;;;11.58;76.80;98637.63;5092570;28;20042;-30
2022/04/08 00:31:21;;;;;;;12.40;6.20;;;;;;;11.58;76.36;98633.06;5110721;28;20106;-31
2022/04/08 00:33:46;;;;;;;12.07;6.20;;;;;;;11.68;75.81;98642.19;5091137;28;20124;-30
2022/04/08 00:36:12;;;;;;;8.88;6.10;;;;;;;11.59;75.76;98637.34;5110628;28;20169;-29
2022/04/08 00:38:37;;;;;;;11.57;6.32;;;;;;;11.67;75.59;98652.09;5110693;28;20019;-29
2022/04/08 00:41:02;;;;;;;12.68;6.45;;;;;;;11.75;75.82;98664.94;5092342;28;20509;-29
2022/04/08 00:43:34;;;;;;;11.60;5.75;;;;;;;11.65;75.23;98656.88;5110534;28;20407;-29
2022/04/08 00:46:01;;;;;;;10.77;5.90;;;;;;;11.85;75.03;98674.88;5091981;28;20032;-32
2022/04/08 00:48:26;;;;;;;10.77;5.68;;;;;;;11.80;75.71;98685.50;5091775;28;20027;-29
2022/04/08 00:50:53;;;;;;;10.77;5.90;;;;;;;11.58;75.75;98661.63;5110758;28;20051;-29
2022/04/08 00:53:19;;;;;;;10.35;5.72;;;;;;;11.60;76.23;98673.66;5092105;28;20496;-30
2022/04/08 00:55:45;;;;;;;12.77;5.63;;;;;;;11.80;76.15;98691.66;5091881;28;20019;-30
2022/04/08 00:58:11;;;;;;;8.95;5.40;;;;;;;11.74;76.57;98702.59;5110237;28;20024;-29
2022/04/08 01:00:38;;;;;;;9.35;4.80;;;;;;;11.86;76.33;98700.50;5110378;28;20078;-30
2022/04/08 01:03:05;;;;;;;8.63;5.47;;;;;;;11.95;75.68;98709.66;5091397;28;20446;-32
2022/04/08 01:05:31;;;;;;;13.15;5.60;;;;;;;11.96;75.25;98695.22;5091886;28;20159;-30
2022/04/08 01:07:57;;;;;;;10.52;5.47;;;;;;;11.98;74.78;98694.97;5091876;28;20027;-28
2022/04/08 01:10:24;;;;;;;11.25;5.15;;;;;;;12.17;74.40;98711.34;5109869;28;20423;-29
2022/04/08 01:12:49;;;;;;;13.55;6.40;;;;;;;12.17;74.35;98697.97;5091439;28;20054;-29
2022/04/08 01:15:22;;;;;;;24.55;11.43;;;;;;;12.21;73.85;98718.56;5110090;28;20050;-29
2022/04/08 01:17:49;;;;;;;16.55;7.50;;;;;;;12.26;73.51;98728.50;5091480;28;20046;-28
2022/04/08 01:20:15;;;;;;;15.25;6.88;;;;;;;12.13;73.91;98702.25;5091383;28;20423;-31
2022/04/08 01:22:42;;;;;;;11.88;6.07;;;;;;;12.34;73.57;98722.63;5091242;28;20024;-29
2022/04/08 01:25:10;;;;;;;11.20;5.38;;;;;;;12.25;74.12;98722.31;5091191;28;20096;-29
2022/04/08 01:27:36;;;;;;;12.05;5.72;;;;;;;12.25;73.72;98726.88;5091158;28;20109;-30
2022/04/08 01:30:05;;;;;;;11.85;5.20;;;;;;;12.22;73.55;98720.19;5090955;28;20103;-30
2022/04/08 01:32:30;;;;;;;8.10;5.18;;;;;;;12.10;74.23;98727.63;5090809;28;20020;-29
2022/04/08 01:34:56;;;;;;;7.72;5.10;;;;;;;12.00;73.96;98709.69;5090981;28;20096;-29
2022/04/08 01:37:21;;;;;;;8.45;4.90;;;;;;;12.01;74.42;98724.66;5109580;28;20551;-29
2022/04/08 01:39:47;;;;;;;8.93;4.85;;;;;;;11.85;73.85;98707.72;5109399;28;20023;-30
2022/04/08 01:42:13;;;;;;;8.07;5.43;;;;;;;11.90;73.76;98722.19;5090970;28;20084;-29
2022/04/08 01:44:40;;;;;;;7.20;4.68;;;;;;;11.92;74.02;98726.19;5090849;28;20027;-31
2022/04/08 01:47:06;;;;;;;8.20;4.32;;;;;;;11.80;74.68;98720.25;5091138;28;20039;-28
2022/04/08 01:49:32;;;;;;;11.43;5.80;;;;;;;11.84;74.24;98724.00;5090972;28;20039;-33
2022/04/08 01:51:57;;;;;;;11.10;4.80;;;;;;;11.82;74.28;98731.47;5090824;28;20063;-29
2022/04/08 01:54:23;;;;;;;8.75;5.53;;;;;;;11.86;74.47;98736.03;5107512;28;20422;-30
2022/04/08 01:56:49;;;;;;;9.98;4.53;;;;;;;11.70;74.32;98720.19;5090723;28;20488;-30
2022/04/08 01:59:15;;;;;;;9.75;4.15;;;;;;;11.52;74.70;98710.72;5108786;28;20054;-30
2022/04/08 02:01:40;;;;;;;7.15;4.22;;;;;;;11.61;75.04;98731.34;5090543;28;20027;-29
2022/04/08 02:04:06;;;;;;;8.20;4.40;;;;;;;11.51;74.69;98712.59;5109037;28;20114;-28
2022/04/08 02:06:32;;;;;;;9.25;4.18;;;;;;;11.58;74.25;98723.06;5108556;28;20023;-33
2022/04/08 02:08:58;;;;;;;10.70;5.85;;;;;;;11.49;73.98;98728.09;5090327;28;20147;-30
2022/04/08 02:11:24;;;;;;;8.18;4.00;;;;;;;11.23;74.46;98697.75;5090201;28;20023;-30
2022/04/08 02:13:51;;;;;;;5.47;3.20;;;;;;;11.34;74.53;98722.63;5090262;28;20030;-30
2022/04/08 02:16:16;;;;;;;4.50;2.53;;;;;;;11.29;73.27;98693.25;5090224;28;20031;-29
2022/04/08 02:18:42;;;;;;;3.88;2.40;;;;;;;11.44;72.88;98710.19;5109032;28;20039;-32
2022/04/08 02:21:09;;;;;;;6.20;2.65;;;;;;;11.53;72.07;98702.47;5090393;28;20026;-29
2022/04/08 02:23:36;;;;;;;4.78;2.80;;;;;;;11.64;70.79;98698.78;5090213;28;20031;-29
2022/04/08 02:26:06;;;;;;;4.65;2.65;;;;;;;11.70;70.21;98696.16;5090332;28;20121;-30
2022/04/08 02:28:34;;;;;;;5.50;2.58;;;;;;;11.89;69.68;98705.38;5089600;28;20084;-30
2022/04/08 02:31:00;;;;;;;6.38;2.70;;;;;;;11.88;69.30;98718.94;5108397;28;20047;-29
2022/04/08 02:33:25;;;;;;;5.82;3.10;;;;;;;11.95;69.23;98709.66;5108502;28;20851;-33
2022/04/08 02:35:51;;;;;;;5.68;2.28;;;;;;;11.92;68.61;98709.38;5108176;28;20050;-31
2022/04/08 02:38:16;;;;;;;7.20;3.10;;;;;;;12.04;67.83;98715.31;5108170;28;20023;-30
2022/04/08 02:40:42;;;;;;;6.30;2.50;;;;;;;12.02;67.59;98715.56;5108586;28;20037;-30
2022/04/08 02:43:07;;;;;;;5.25;2.95;;;;;;;12.14;67.72;98727.91;5107979;28;20032;-36
2022/04/08 02:45:32;;;;;;;4.63;2.58;;;;;;;12.19;66.88;98734.06;5108379;28;20039;-32
2022/04/08 02:47:58;;;;;;;5.22;2.60;;;;;;;12.13;66.34;98710.25;5108413;28;20480;-32
2022/04/08 02:50:23;;;;;;;4.85;2.78;;;;;;;12.27;65.79;98748.78;5107821;28;20024;-29
2022/04/08 02:52:49;;;;;;;8.50;2.90;;;;;;;12.15;66.70;98734.84;5108008;28;20114;-30
2022/04/08 02:55:14;;;;;;;6.72;2.60;;;;;;;12.23;65.98;98747.72;5107937;28;20027;-29
2022/04/08 02:57:46;;;;;;;6.03;2.80;;;;;;;12.28;66.24;98755.75;5111950;28;20024;-28
2022/04/08 03:00:20;;;;;;;6.75;2.63;;;;;;;12.21;66.24;98771.22;5096377;28;20510;-28
2022/04/08 03:02:48;;;;;;;6.13;2.95;;;;;;;12.16;65.89;98768.53;5096574;28;20131;-29
2022/04/08 03:05:14;;;;;;;6.47;2.85;;;;;;;12.00;66.46;98773.81;5096477;28;20038;-30
2022/04/08 03:07:40;;;;;;;5.50;2.35;;;;;;;11.90;66.91;98764.94;5096458;28;20030;-29
2022/04/08 03:10:08;;;;;;;6.43;2.85;;;;;;;11.83;67.13;98771.28;5114755;28;20110;-30
2022/04/08 03:12:34;;;;;;;5.28;3.60;;;;;;;11.66;67.67;98760.75;5114910;28;20034;-32
2022/04/08 03:15:00;;;;;;;6.40;3.38;;;;;;;11.68;67.53;98765.84;5096446;28;20044;-31
2022/04/08 03:17:26;;;;;;;6.88;3.40;;;;;;;11.51;68.25;98762.53;5096388;28;20476;-29
2022/04/08 03:19:52;;;;;;;6.78;3.30;;;;;;;11.40;68.82;98772.31;5115073;28;20042;-32
2022/04/08 03:22:20;;;;;;;6.07;3.05;;;;;;;11.54;68.00;98783.38;5114330;28;20028;-29
2022/04/08 03:24:50;;;;;;;17.27;7.63;;;;;;;11.52;67.97;98775.59;5096103;28;20084;-28
2022/04/08 03:27:16;;;;;;;32.78;11.70;;;;;;;11.42;67.84;98773.69;5114742;28;20028;-30
2022/04/08 03:29:42;;;;;;;19.00;8.40;;;;;;;11.35;68.01;98770.41;5096346;28;20037;-35
2022/04/08 03:32:08;;;;;;;9.15;5.10;;;;;;;11.05;68.55;98744.28;5114412;28;20024;-31
2022/04/08 03:34:34;;;;;;;7.45;4.05;;;;;;;10.99;69.09;98772.81;5096170;28;20040;-30
2022/04/08 03:36:59;;;;;;;6.28;3.25;;;;;;;10.90;69.15;98768.97;5114455;28;20446;-30
2022/04/08 03:39:25;;;;;;;9.10;3.42;;;;;;;10.78;69.43;98766.47;5095806;28;20084;-32
2022/04/08 03:41:51;;;;;;;6.35;3.20;;;;;;;10.65;69.57;98769.53;5114633;28;20023;-29
2022/04/08 03:44:18;;;;;;;6.53;3.03;;;;;;;10.48;70.13;98776.81;5113949;28;20043;-30
2022/04/08 03:46:46;;;;;;;7.18;3.25;;;;;;;10.51;70.09;98784.31;5112828;28;20056;-31
2022/04/08 03:49:16;;;;;;;5.97;3.03;;;;;;;10.42;70.06;98774.09;5113751;28;20036;-29
2022/04/08 03:51:42;;;;;;;6.68;3.53;;;;;;;10.31;70.20;98777.69;5095646;28;20015;-29
2022/04/08 03:54:08;;;;;;;7.30;3.45;;;;;;;10.33;70.95;98780.91;5095992;28;20030;-31
2022/04/08 03:56:35;;;;;;;6.07;3.60;;;;;;;10.38;71.07;98794.31;5096204;28;20043;-29
2022/04/08 03:59:01;;;;;;;5.88;3.50;;;;;;;10.48;70.43;98782.13;5096032;28;20028;-29
2022/04/08 04:01:26;;;;;;;6.82;3.72;;;;;;;10.83;69.16;98793.19;5095977;28;20031;-28
2022/04/08 04:03:52;;;;;;;6.32;3.50;;;;;;;10.62;69.41;98781.53;5114072;28;20791;-33
2022/04/08 04:06:18;;;;;;;5.38;3.58;;;;;;;10.58;69.98;98785.75;5095474;28;20034;-29
2022/04/08 04:08:44;;;;;;;7.97;3.58;;;;;;;10.51;70.42;98793.13;5111726;28;20415;-36
2022/04/08 04:11:14;;;;;;;7.18;3.80;;;;;;;10.83;69.43;98811.88;5111043;28;20034;-34
2022/04/08 04:13:43;;;;;;;10.85;4.80;;;;;;;10.86;69.33;98818.53;5092486;28;20028;-30
2022/04/08 04:16:09;;;;;;;5.20;3.33;;;;;;;11.04;68.45;98826.19;5092273;28;20043;-32
2022/04/08 04:18:34;;;;;;;6.72;3.70;;;;;;;11.05;68.13;98802.97;5110778;28;20031;-29
2022/04/08 04:21:01;;;;;;;7.60;3.55;;;;;;;11.17;67.72;98821.50;5110576;28;20024;-30
2022/04/08 04:23:26;;;;;;;6.53;3.95;;;;;;;11.12;67.61;98818.81;5111325;28;20027;-31
2022/04/08 04:25:51;;;;;;;7.55;4.78;;;;;;;11.21;66.88;98823.41;5110700;28;20020;-29
2022/04/08 04:28:17;;;;;;;7.85;4.28;;;;;;;11.34;66.73;98827.53;5110588;28;20073;-29
2022/04/08 04:30:42;;;;;;;7.57;3.00;;;;;;;11.49;66.38;98840.22;5110719;28;20019;-30
2022/04/08 04:33:08;;;;;;;6.75;3.08;;;;;;;11.65;66.34;98843.81;5110466;28;20071;-31
2022/04/08 04:35:38;;;;;;;5.55;2.53;;;;;;;11.81;65.23;98842.03;5110175;28;20130;-29
2022/04/08 04:38:04;;;;;;;6.68;2.42;;;;;;;11.89;64.13;98838.94;5110677;28;20811;-31
2022/04/08 04:40:30;;;;;;;6.38;3.00;;;;;;;12.04;64.10;98852.38;5092008;28;20507;-30
2022/04/08 04:42:56;;;;;;;6.35;3.00;;;;;;;12.09;64.12;98864.16;5092001;28;20046;-34
2022/04/08 04:45:22;;;;;;;4.95;2.78;;;;;;;12.06;63.83;98870.84;5110604;28;20032;-29
2022/04/08 04:47:47;;;;;;;7.13;3.70;;;;;;;12.10;64.17;98876.47;5091890;28;20024;-29
2022/04/08 04:50:13;;;;;;;7.78;3.80;;;;;;;12.21;63.79;98860.22;5091444;28;20423;-30
2022/04/08 04:52:38;;;;;;;8.32;2.63;;;;;;;12.21;62.98;98878.94;5110316;28;20043;-30
2022/04/08 04:55:05;;;;;;;5.15;3.50;;;;;;;12.20;63.97;98903.25;5110322;28;20034;-30
2022/04/08 04:57:31;;;;;;;5.90;2.83;;;;;;;12.23;63.11;98892.03;5091886;28;20554;-34
2022/04/08 04:59:56;;;;;;;4.82;2.60;;;;;;;12.42;62.60;98911.94;5109907;28;20023;-33
2022/04/08 05:02:22;;;;;;;8.10;3.33;;;;;;;12.55;63.14;98912.53;5110031;28;20115;-29
2022/04/08 05:04:47;;;;;;;5.28;3.00;;;;;;;12.56;62.38;98895.41;5109964;28;20168;-29
2022/04/08 05:07:13;;;;;;;6.55;3.38;;;;;;;12.67;62.71;98907.78;5110064;28;20046;-29
2022/04/08 05:09:39;;;;;;;6.32;3.55;;;;;;;12.43;62.80;98902.06;5091600;28;20024;-29
2022/04/08 05:12:06;;;;;;;6.28;3.53;;;;;;;12.67;62.67;98907.78;5091610;28;20507;-30
2022/04/08 05:14:31;;;;;;;7.38;3.30;;;;;;;12.86;60.96;98926.84;5091115;28;20027;-40
2022/04/08 05:16:58;;;;;;;6.47;3.00;;;;;;;12.90;61.93;98937.84;5110090;28;20031;-31
2022/04/08 05:19:24;;;;;;;6.60;3.33;;;;;;;12.90;61.15;98932.50;5109448;28;20107;-29
2022/04/08 05:21:52;;;;;;;6.65;3.13;;;;;;;13.10;60.91;98953.97;5091217;28;20078;-31
2022/04/08 05:24:18;;;;;;;6.10;2.97;;;;;;;13.04;60.28;98925.59;5108356;28;20043;-29
2022/04/08 05:26:43;;;;;;;7.50;2.97;;;;;;;13.24;59.60;98952.41;5091103;28;20070;-33
2022/04/08 05:29:09;;;;;;;6.93;2.80;;;;;;;13.35;58.36;98955.16;5109636;28;20031;-29
2022/04/08 05:31:34;;;;;;;4.57;2.35;;;;;;;13.33;58.45;98938.53;5109586;28;20507;-32
2022/04/08 05:34:00;;;;;;;5.50;3.10;;;;;;;13.74;58.49;98952.00;5109327;28;20489;-28
2022/04/08 05:36:25;;;;;;;5.18;2.40;;;;;;;13.77;57.52;98927.34;5108930;28;20495;-34
2022/04/08 05:38:50;;;;;;;4.05;2.58;;;;;;;13.79;57.06;98942.09;5109560;28;20063;-29
2022/04/08 05:41:16;;;;;;;5.55;2.40;;;;;;;13.87;56.97;98962.19;5074008;28;20031;-29
2022/04/08 05:43:44;;;;;;;4.53;2.33;;;;;;;13.83;56.24;98945.03;5109138;28;20028;-31
2022/04/08 05:46:10;;;;;;;7.90;2.88;;;;;;;14.10;56.44;98963.53;5108902;28;20036;-29
2022/04/08 05:48:36;;;;;;;6.65;2.15;;;;;;;14.16;55.09;98964.31;5090505;28;20136;-30
2022/04/08 05:51:01;;;;;;;4.05;2.10;;;;;;;14.43;55.09;98969.41;5109335;28;20145;-28
2022/04/08 05:53:27;;;;;;;4.28;2.00;;;;;;;14.43;54.92;98964.03;5109040;28;20153;-29
2022/04/08 05:55:55;;;;;;;5.57;2.40;;;;;;;14.58;54.63;98971.28;5109211;28;20035;-32
2022/04/08 05:58:21;;;;;;;4.65;2.00;;;;;;;14.59;53.72;98983.63;5108743;28;20024;-33
2022/04/08 06:00:46;;;;;;;4.68;1.77;;;;;;;14.40;54.05;98962.69;5108790;28;20046;-33
2022/04/08 06:03:12;;;;;;;3.30;1.77;;;;;;;14.44;53.50;98971.81;5108575;28;20593;-30
2022/04/08 06:05:37;;;;;;;4.13;2.22;;;;;;;14.77;53.68;98984.91;5108946;28;20407;-31
2022/04/08 06:08:04;;;;;;;4.30;1.95;;;;;;;14.86;53.40;99000.19;5108971;28;20054;-29
2022/04/08 06:10:29;;;;;;;3.20;2.10;;;;;;;14.75;53.33;98998.63;5108410;28;20032;-29
2022/04/08 06:12:55;;;;;;;5.40;2.28;;;;;;;14.99;52.70;99024.84;5090402;28;20077;-29
2022/04/08 06:15:21;;;;;;;5.13;2.00;;;;;;;14.93;52.73;98993.72;5108579;28;20846;-29
2022/04/08 06:17:47;;;;;;;4.00;1.90;;;;;;;15.04;53.00;99008.72;5108542;28;20031;-31
2022/04/08 06:20:16;;;;;;;6.60;2.30;;;;;;;15.18;52.56;99011.59;5089988;28;20701;-31
2022/04/08 06:22:42;;;;;;;6.18;2.42;;;;;;;15.31;51.91;99021.78;5108679;28;20115;-31
2022/04/08 06:25:10;;;;;;;2.38;1.48;;;;;;;15.27;50.74;99010.78;5089977;28;20028;-32
2022/04/08 06:27:35;;;;;;;;;;;;;;;15.57;50.99;99041.28;5090392;28;20110;-30
2022/04/08 06:30:03;;;;;;;3.63;1.85;;;;;;;15.54;49.14;99014.94;5108291;28;20048;-29
2022/04/08 06:32:28;;;;;;;5.07;2.70;;;;;;;15.77;50.46;99044.94;5088969;28;20507;-32
2022/04/08 06:34:54;;;;;;;6.97;2.50;;;;;;;15.82;48.97;99042.22;5108136;28;20192;-30
2022/04/08 06:37:19;;;;;;;8.02;2.00;;;;;;;16.14;49.65;99041.75;5108357;28;20031;-32
2022/04/08 06:39:47;;;;;;;3.38;1.52;;;;;;;16.14;49.02;99043.63;5108465;28;20036;-29
2022/04/08 06:42:13;;;;;;;5.10;1.98;;;;;;;16.17;48.70;99065.38;5107930;28;20110;-30
2022/04/08 06:44:38;;;;;;;3.08;1.80;;;;;;;16.12;48.64;99061.91;5108042;28;20165;-29
2022/04/08 06:47:04;;;;;;;4.13;1.73;;;;;;;16.13;48.19;99056.28;5108048;28;20566;-32
2022/04/08 06:49:29;;;;;;;5.40;2.17;;;;;;;16.27;47.89;99038.41;5089684;28;20036;-30
2022/04/08 06:51:58;;;;;;;2.90;1.40;;;;;;;16.32;47.51;99061.75;5108066;28;20094;-29
2022/04/08 06:54:25;;;;;;;2.67;1.50;;;;;;;16.52;47.61;99068.06;5089457;28;20138;-31
2022/04/08 06:56:51;;;;;;;4.60;1.65;;;;;;;16.55;47.22;99062.13;5089571;28;20096;-29
2022/04/08 06:59:17;;;;;;;6.65;1.73;;;;;;;16.68;46.54;99081.13;5089287;28;20054;-29
2022/04/08 07:01:42;;;;;;;3.92;1.75;;;;;;;16.82;46.74;99083.97;5089944;28;20046;-32
2022/04/08 07:04:08;;;;;;;3.63;1.63;;;;;;;16.69;45.24;99068.44;5107916;28;20526;-30
2022/04/08 07:06:33;;;;;;;5.00;1.80;;;;;;;17.02;45.20;99076.78;5107924;28;20032;-31
2022/04/08 07:08:59;;;;;;;3.47;1.70;;;;;;;17.13;45.29;99075.59;5108111;28;20032;-31
2022/04/08 07:11:24;;;;;;;3.40;1.45;;;;;;;17.22;44.90;99068.50;5107908;28;20419;-33
2022/04/08 07:13:50;;;;;;;4.40;1.50;;;;;;;17.30;44.56;99091.28;5107818;28;20084;-29
2022/04/08 07:16:15;;;;;;;1.98;1.30;;;;;;;17.24;44.05;99100.50;5120405;28;20534;-36
2022/04/08 07:18:41;;;;;;;3.65;1.40;;;;;;;17.24;44.44;99087.88;5093112;28;20035;-29
2022/04/08 07:21:06;;;;;;;5.38;2.03;;;;;;;17.46;43.71;99097.31;5128451;28;20023;-31
2022/04/08 07:23:32;;;;;;;2.88;1.30;;;;;;;17.70;44.50;99104.59;5128517;28;20027;-32
2022/04/08 07:25:57;;;;;;;4.55;1.42;;;;;;;17.85;43.18;99105.19;5128248;28;20028;-30
2022/04/08 07:28:23;;;;;;;3.55;1.30;;;;;;;17.80;42.40;99083.66;5127796;28;20037;-30
2022/04/08 07:30:50;;;;;;;4.28;1.65;;;;;;;17.92;43.92;99080.56;5109519;28;20034;-32
2022/04/08 07:33:16;;;;;;;3.78;1.63;;;;;;;18.02;44.08;99083.13;5109759;28;20069;-30
2022/04/08 07:35:41;;;;;;;5.45;1.77;;;;;;;18.41;44.32;99103.59;5128244;28;20078;-29
2022/04/08 07:38:07;;;;;;;2.67;1.30;;;;;;;18.34;43.12;99092.34;5128126;28;20113;-30
2022/04/08 07:40:33;;;;;;;5.60;1.50;;;;;;;18.48;42.56;99103.19;5128385;28;20060;-30
2022/04/08 07:42:58;;;;;;;4.78;1.50;;;;;;;18.33;41.25;99106.94;5128187;27;20415;-34
2022/04/08 07:45:27;;;;;;;5.30;2.08;;;;;;;18.71;41.23;99089.88;5132161;27;20042;-29
2022/04/08 07:47:57;;;;;;;3.05;1.58;;;;;;;18.96;41.02;99102.16;5132072;27;20080;-29
2022/04/08 07:50:22;;;;;;;5.13;1.50;;;;;;;18.94;40.90;99093.53;5113431;27;20030;-29
2022/04/08 07:52:48;;;;;;;2.72;1.42;;;;;;;19.17;39.89;99095.28;5131758;27;20456;-29
2022/04/08 07:55:13;;;;;;;2.45;1.58;;;;;;;19.11;40.48;99110.00;5131921;27;20027;-31
2022/04/08 07:57:45;;;;;;;6.55;1.95;;;;;;;19.34;40.00;99123.63;5112992;27;20042;-29
2022/04/08 08:00:12;;;;;;;3.88;1.80;;;;;;;19.15;41.11;99102.88;5113215;27;20414;-29
2022/04/08 08:02:38;;;;;;;2.97;1.75;;;;;;;19.26;39.12;99122.41;5131918;27;20433;-31
2022/04/08 08:05:05;;;;;;;7.82;2.47;;;;;;;19.23;38.96;99101.41;5131604;27;20068;-32
2022/04/08 08:07:31;;;;;;;5.90;1.75;;;;;;;19.35;38.57;99117.09;5113285;27;20168;-30
2022/04/08 08:09:56;;;;;;;3.40;1.80;;;;;;;19.64;38.58;99114.09;5131412;27;20118;-35
2022/04/08 08:12:22;;;;;;;4.93;1.60;;;;;;;19.54;38.72;99123.22;5131082;27;20418;-29
2022/04/08 08:14:47;;;;;;;5.18;1.80;;;;;;;19.71;38.06;99111.00;5131625;27;20035;-31
2022/04/08 08:17:12;;;;;;;4.88;1.63;;;;;;;19.45;38.37;99122.31;5131580;27;20019;-31
2022/04/08 08:19:38;;;;;;;3.13;1.83;;;;;;;19.67;37.67;99122.38;5131464;27;20051;-30
2022/04/08 08:22:03;;;;;;;2.90;1.50;;;;;;;19.74;37.74;99102.31;5131235;27;20031;-34
2022/04/08 08:24:29;;;;;;;4.13;1.90;;;;;;;20.22;38.01;99126.91;5131091;27;20291;-28
2022/04/08 08:26:55;;;;;;;4.75;1.85;;;;;;;20.46;37.77;99121.22;5130919;27;20030;-32
2022/04/08 08:29:20;;;;;;;5.07;1.70;;;;;;;20.68;37.60;99138.63;5131301;27;20031;-34
2022/04/08 08:31:46;;;;;;;3.45;1.67;;;;;;;20.69;36.32;99140.22;5131030;27;20042;-30
2022/04/08 08:34:11;;;;;;;3.13;1.55;;;;;;;20.82;37.76;99144.78;5078546;27;20032;-30
2022/04/08 08:36:37;;;;;;;3.20;1.77;;;;;;;20.64;35.27;99153.91;5112323;27;20051;-29
2022/04/08 08:39:02;;;;;;;5.65;1.67;;;;;;;20.24;35.19;99140.16;5131614;27;20034;-29
2022/04/08 08:41:29;;;;;;;5.95;2.00;;;;;;;20.79;35.26;99174.38;5130737;27;20505;-31
2022/04/08 08:43:55;;;;;;;3.65;1.75;;;;;;;20.72;34.79;99155.88;5112684;27;20034;-29
2022/04/08 08:46:21;;;;;;;5.85;2.25;;;;;;;20.99;35.12;99151.41;5112356;27;20114;-29
2022/04/08 08:48:50;;;;;;;4.97;2.33;;;;;;;21.32;34.74;99153.78;5131106;27;20038;-29
2022/04/08 08:51:18;;;;;;;3.70;2.03;;;;;;;21.19;34.10;99148.16;5112174;27;20046;-33
2022/04/08 08:53:43;;;;;;;4.93;1.90;;;;;;;21.11;34.75;99138.06;5112032;27;20015;-36
2022/04/08 08:56:10;;;;;;;3.40;1.70;;;;;;;21.53;32.83;99156.78;5129640;27;20031;-29
2022/04/08 08:58:36;;;;;;;5.25;1.65;;;;;;;21.42;33.64;99143.50;5112280;27;20039;-29
2022/04/08 09:01:08;;;;;;;3.90;1.92;;;;;;;21.61;32.46;99143.22;5130759;27;20023;-29
2022/04/08 09:03:34;;;;;;;5.45;1.75;;;;;;;21.94;32.52;99153.69;5111999;27;20031;-29
2022/04/08 09:06:07;;;;;;;3.78;1.70;;;;;;;21.37;32.79;99124.63;5130588;27;20111;-31
2022/04/08 09:08:38;;;;;;;3.38;1.90;;;;;;;21.75;33.70;99139.59;5111673;27;20053;-30
2022/04/08 09:11:04;;;;;;;3.35;1.90;;;;;;;21.50;33.40;99146.56;5130140;27;20462;-38
2022/04/08 09:13:30;;;;;;;7.40;1.98;;;;;;;21.75;31.87;99148.53;5111971;27;20041;-30
2022/04/08 09:15:59;;;;;;;5.45;2.08;;;;;;;21.99;32.37;99158.97;5130438;27;20031;-34
2022/04/08 09:18:30;;;;;;;6.88;1.83;;;;;;;22.41;33.70;99148.50;5111650;27;20591;-31
2022/04/08 09:20:57;;;;;;;4.32;1.92;;;;;;;22.68;31.67;99168.31;5111349;27;20369;-36
2022/04/08 09:23:23;;;;;;;4.07;1.60;;;;;;;22.63;31.49;99171.19;5130404;27;20795;-29
2022/04/08 09:25:57;;;;;;;3.92;2.03;;;;;;;22.71;32.07;99167.66;5130166;27;20027;-29
2022/04/08 09:28:23;;;;;;;5.00;2.08;;;;;;;21.93;31.16;99165.66;5130031;27;20031;-30
2022/04/08 09:30:55;;;;;;;4.95;1.88;;;;;;;22.00;31.89;99181.47;5129955;27;20077;-31
2022/04/08 09:33:23;;;;;;;4.93;2.38;;;;;;;22.39;31.30;99171.66;5129962;27;20042;-31
2022/04/08 09:35:53;;;;;;;4.05;2.00;;;;;;;22.42;30.88;99171.03;5107599;28;20130;-32
2022/04/08 09:38:21;;;;;;;4.13;1.92;;;;;;;22.71;31.18;99177.72;5107841;28;20124;-29
2022/04/08 09:40:49;;;;;;;4.82;2.17;;;;;;;23.09;30.94;99179.75;5107783;28;20039;-30
2022/04/08 09:43:16;;;;;;;4.97;2.20;;;;;;;23.16;31.05;99177.34;5107913;28;20122;-31
2022/04/08 09:45:41;;;;;;;2.58;1.63;;;;;;;23.01;29.52;99171.31;5109088;28;20027;-33
2022/04/08 09:48:08;;;;;;;3.88;1.88;;;;;;;23.00;30.46;99182.47;5107546;28;20020;-31
2022/04/08 09:50:36;;;;;;;3.17;1.70;;;;;;;23.38;29.42;99185.28;5107870;28;20058;-31
2022/04/08 09:53:04;;;;;;;;;;;;;;;23.20;31.51;99189.97;5108239;28;20027;-34
2022/04/08 09:55:30;;;;;;;2.90;1.70;;;;;;;23.01;30.30;99184.09;5109168;28;20102;-30
2022/04/08 09:57:58;;;;;;;4.47;1.90;;;;;;;23.10;30.01;99186.81;5107474;28;20035;-30
2022/04/08 10:00:28;;;;;;;4.05;1.92;;;;;;;23.26;27.65;99185.94;5107217;28;20076;-32
2022/04/08 10:02:55;;;;;;;4.10;1.75;;;;;;;23.25;27.22;99180.81;5108921;28;20415;-29
2022/04/08 10:05:22;;;;;;;2.83;2.10;;;;;;;23.25;29.36;99154.44;5107477;28;20030;-29
2022/04/08 10:07:52;;;;;;;2.50;1.48;;;;;;;23.24;27.49;99181.97;5107921;28;20028;-29
2022/04/08 10:10:23;;;;;;;5.30;2.00;;;;;;;23.37;27.51;99178.22;5108482;28;20076;-31
2022/04/08 10:13:10;;;;;;;4.00;1.80;;;;;;;23.50;27.73;99165.56;5107062;28;20531;-30
2022/04/08 10:15:42;;;;;;;4.80;1.80;;;;;;;23.74;27.83;99170.41;5107555;28;20031;-30
2022/04/08 10:18:08;;;;;;;4.32;1.88;;;;;;;23.53;27.22;99164.09;5107067;28;20039;-30
2022/04/08 10:20:35;;;;;;;3.00;1.80;;;;;;;23.85;27.41;99171.63;5108635;28;20035;-31
2022/04/08 10:23:12;;;;;;;3.83;1.70;;;;;;;23.50;27.04;99159.28;5106971;28;20526;-33
2022/04/08 10:25:43;;;;;;;3.88;1.80;;;;;;;23.84;28.32;99163.78;5123932;27;20047;-32
2022/04/08 10:28:11;;;;;;;3.25;1.90;;;;;;;23.84;27.79;99155.63;5106978;28;20042;-30
2022/04/08 10:30:47;;;;;;;4.28;1.90;;;;;;;23.90;27.85;99178.81;5106987;28;20513;-29
2022/04/08 10:33:23;;;;;;;5.10;1.70;;;;;;;24.41;28.52;99174.13;5108460;28;20490;-30
2022/04/08 10:35:53;;;;;;;2.55;1.40;;;;;;;24.43;25.41;99158.25;5106935;28;20048;-34
2022/04/08 10:38:19;;;;;;;3.22;1.60;;;;;;;24.82;25.44;99186.16;5106827;28;20059;-30
2022/04/08 10:40:54;;;;;;;3.35;1.70;;;;;;;24.92;25.79;99190.38;5108486;28;20089;-33
2022/04/08 10:43:20;;;;;;;1.88;1.50;;;;;;;25.01;25.10;99179.41;5123944;27;20031;-34
2022/04/08 10:45:56;;;;;;;4.45;1.92;;;;;;;25.14;25.14;99186.47;5107035;28;20093;-32
2022/04/08 10:48:22;;;;;;;2.60;1.52;;;;;;;24.73;26.33;99192.84;5106499;28;20023;-32
2022/04/08 10:50:47;;;;;;;6.72;2.10;;;;;;;25.10;25.93;99185.56;5124178;28;20772;-29
2022/04/08 10:53:18;;;;;;;3.72;1.75;;;;;;;25.02;25.88;99189.16;5108279;28;20032;-33
2022/04/08 10:56:07;;;;;;;2.45;1.60;;;;;;;25.41;25.13;99185.06;5124177;27;20103;-32
2022/04/08 10:58:59;;;;;;;2.92;1.40;;;;;;;25.43;25.13;99182.00;5106892;28;20020;-32
2022/04/08 11:01:25;;;;;;;4.22;2.30;;;;;;;25.43;25.16;99193.72;5106290;28;20034;-34
2022/04/08 11:04:00;;;;;;;3.53;1.75;;;;;;;25.81;25.17;99186.34;5108017;28;20028;-29
2022/04/08 11:06:45;;;;;;;2.97;1.80;;;;;;;25.98;23.57;99182.59;5106531;28;20067;-30
2022/04/08 11:09:14;;;;;;;3.05;1.67;;;;;;;26.34;24.78;99175.47;5106326;28;20032;-32
2022/04/08 11:11:42;;;;;;;4.97;1.73;;;;;;;26.98;25.19;99173.75;5089817;28;20067;-37
2022/04/08 11:14:10;;;;;;;3.05;1.63;;;;;;;27.12;24.43;99165.91;5106159;28;20019;-35
2022/04/08 11:16:40;;;;;;;6.00;2.00;;;;;;;26.97;22.20;99186.63;5106367;28;20039;-31
2022/04/08 11:19:07;;;;;;;3.65;1.80;;;;;;;26.39;22.11;99177.94;5109221;28;20081;-32
2022/04/08 11:21:40;;;;;;;2.80;1.65;;;;;;;26.88;21.73;99177.00;5110581;28;20023;-29
2022/04/08 11:24:09;;;;;;;2.65;1.40;;;;;;;27.32;22.63;99166.84;5111900;28;20042;-29
2022/04/08 11:26:52;;;;;;;5.22;2.00;;;;;;;26.90;23.82;99180.19;5110530;28;20031;-29
2022/04/08 11:29:21;;;;;;;4.28;1.85;;;;;;;27.87;20.88;99182.63;5110568;28;20016;-29
2022/04/08 11:31:48;;;;;;;3.50;1.60;;;;;;;28.45;20.32;99180.75;5111826;28;20070;-31
2022/04/08 11:34:14;;;;;;;4.67;1.93;;;;;;;27.49;22.65;99184.06;5110151;28;20082;-31